Time;durP1;ratioP1;P1;durP2;ratioP2;P2;SDS_P1;SDS_P2;PMS_P1;PMS_P2;Temp;Humidity;BMP_temperature;BMP_pressure;BME280_temperature;BME280_humidity;BME280_pressure;Samples;Min_cycle;Max_cycle;Signal;HPM_P1;HPM_P2
2021/06/26 06:48:25;;;;;;;694.85;663.83;;;;;;;23.66;48.99;100232.56;5090897;27;20389;-58
2021/06/26 06:50:52;;;;;;;701.95;670.45;;;;;;;23.37;49.71;100233.00;5072953;28;20036;-59
2021/06/26 06:53:18;;;;;;;701.83;670.42;;;;;;;23.30;49.90;100232.03;5072593;28;20415;-58
2021/06/26 06:55:50;;;;;;;704.08;672.50;;;;;;;23.17;50.14;100223.66;5070435;28;20116;-61
2021/06/26 06:58:19;;;;;;;702.88;671.33;;;;;;;23.15;50.67;100222.97;5067821;28;20410;-63
2021/06/26 07:00:49;;;;;;;698.05;666.53;;;;;;;23.23;51.21;100225.66;5069675;28;20327;-59
2021/06/26 07:03:18;;;;;;;696.78;665.50;;;;;;;23.29;50.64;100227.66;5070376;28;20016;-69
2021/06/26 07:05:43;;;;;;;710.28;678.40;;;;;;;23.01;51.54;100229.72;5071157;28;20116;-68
2021/06/26 07:08:11;;;;;;;709.30;677.50;;;;;;;23.07;51.18;100213.94;5068923;28;20025;-64
2021/06/26 07:10:36;;;;;;;706.17;674.67;;;;;;;23.18;51.08;100217.31;5080371;28;20071;-65
2021/06/26 07:13:08;;;;;;;707.55;675.75;;;;;;;23.23;52.17;100220.31;5071430;28;20418;-73
2021/06/26 07:15:33;;;;;;;703.97;672.60;;;;;;;23.32;51.39;100216.66;5069632;28;20115;-68
2021/06/26 07:17:59;;;;;;;713.95;681.22;;;;;;;23.40;51.42;100210.50;5050218;28;20048;-75
2021/06/26 07:20:24;;;;;;;707.42;675.50;;;;;;;23.43;51.19;100210.16;5054103;28;20156;-79
2021/06/26 07:22:50;;;;;;;714.67;682.38;;;;;;;23.33;51.39;100209.50;5067399;28;20031;-75
2021/06/26 07:25:15;;;;;;;703.45;671.78;;;;;;;23.34;51.68;100211.13;5053099;28;20474;-69
2021/06/26 07:27:40;;;;;;;706.40;674.67;;;;;;;23.38;52.33;100213.34;5069699;28;20104;-68
2021/06/26 07:30:09;;;;;;;710.42;678.60;;;;;;;23.43;50.96;100210.16;5068030;28;20027;-75
2021/06/26 07:32:35;;;;;;;705.42;674.00;;;;;;;23.44;51.01;100215.34;5069613;28;20033;-74
2021/06/26 07:35:00;;;;;;;707.05;675.50;;;;;;;23.42;51.71;100213.84;5052355;28;20029;-71
2021/06/26 07:37:25;;;;;;;706.20;674.88;;;;;;;23.47;51.17;100214.16;5058894;28;20068;-71
2021/06/26 07:39:51;;;;;;;714.30;682.00;;;;;;;23.47;51.14;100201.66;5049497;28;20063;-63
2021/06/26 07:42:18;;;;;;;710.60;678.70;;;;;;;23.65;51.10;100206.84;5076038;28;20154;-70
2021/06/26 07:44:44;;;;;;;706.70;675.05;;;;;;;23.75;50.40;100203.16;5063591;28;20132;-62
2021/06/26 07:47:11;;;;;;;717.85;685.65;;;;;;;23.68;50.20;100201.16;5028782;28;20034;-62
2021/06/26 07:49:39;;;;;;;709.75;677.92;;;;;;;23.67;50.59;100204.81;5051954;28;20028;-61
2021/06/26 07:52:04;;;;;;;722.92;689.80;;;;;;;23.66;55.56;100199.63;5062242;28;20033;-69
2021/06/26 07:54:30;;;;;;;725.95;692.63;;;;;;;23.65;50.74;100189.97;5043002;28;20478;-67
2021/06/26 07:56:55;;;;;;;724.25;691.25;;;;;;;23.65;50.22;100189.97;5043738;28;20025;-68
2021/06/26 07:59:23;;;;;;;719.45;686.60;;;;;;;23.65;50.61;100198.00;5004076;28;20042;-71
2021/06/26 08:01:48;;;;;;;719.97;687.22;;;;;;;23.66;50.65;100188.97;5025904;28;20030;-68
2021/06/26 08:04:13;;;;;;;724.75;691.60;;;;;;;23.65;50.13;100187.31;5015939;28;20438;-67
2021/06/26 08:06:39;;;;;;;723.75;691.15;;;;;;;23.63;49.93;100186.63;5026499;28;20022;-67
2021/06/26 08:09:06;;;;;;;721.53;688.42;;;;;;;23.59;49.68;100179.97;5007002;28;20387;-67
2021/06/26 08:11:34;;;;;;;720.95;688.30;;;;;;;23.59;50.58;100183.47;5006629;28;20109;-67
2021/06/26 08:13:59;;;;;;;722.53;689.80;;;;;;;23.60;50.05;100178.94;5000729;28;20079;-68
2021/06/26 08:16:25;;;;;;;724.03;691.05;;;;;;;23.60;49.49;100178.94;4999790;28;20026;-68
2021/06/26 08:18:51;;;;;;;721.90;689.30;;;;;;;23.61;49.25;100178.78;5005273;28;20483;-67
2021/06/26 08:21:21;;;;;;;722.60;689.85;;;;;;;23.62;48.88;100187.63;4996062;28;20112;-65
2021/06/26 08:23:48;;;;;;;719.20;686.58;;;;;;;23.61;48.98;100183.31;5005933;28;20026;-66
2021/06/26 08:26:15;;;;;;;724.50;691.65;;;;;;;23.60;49.08;100181.63;5007410;28;20030;-65
2021/06/26 08:28:43;;;;;;;720.80;688.28;;;;;;;23.61;48.60;100183.31;5015377;28;20117;-66
2021/06/26 08:31:11;;;;;;;;;;;;;;;23.64;48.80;100172.25;5015955;28;20038;-66
2021/06/26 08:33:36;;;;;;;719.38;686.60;;;;;;;23.61;47.42;100178.78;5010902;28;20460;-65
2021/06/26 08:36:02;;;;;;;728.17;695.22;;;;;;;23.63;48.12;100167.94;5007267;28;20122;-67
2021/06/26 08:38:27;;;;;;;723.58;690.63;;;;;;;23.66;50.35;100172.94;5013249;28;20037;-67
2021/06/26 08:40:55;;;;;;;723.38;690.25;;;;;;;23.67;49.39;100169.28;5013165;28;20461;-66
2021/06/26 08:43:21;;;;;;;;;;;;;;;23.67;49.27;100167.41;5030552;28;20030;-67
2021/06/26 08:45:49;;;;;;;726.25;692.85;;;;;;;23.67;49.59;100163.94;5014067;28;19920;-67
2021/06/26 08:48:14;;;;;;;722.25;689.55;;;;;;;23.69;49.62;100167.25;5026692;28;20513;-66
2021/06/26 08:50:40;;;;;;;723.20;690.42;;;;;;;23.69;48.96;100169.94;5023337;28;20080;-68
2021/06/26 08:53:06;;;;;;;730.08;696.63;;;;;;;23.68;50.29;100160.22;5018917;28;20044;-68
2021/06/26 08:55:32;;;;;;;725.22;692.30;;;;;;;23.72;49.48;100166.06;5039617;28;20130;-67
2021/06/26 08:58:02;;;;;;;719.97;687.45;;;;;;;23.73;49.48;100168.59;5034876;28;20121;-69
2021/06/26 09:00:30;;;;;;;724.53;691.75;;;;;;;23.75;50.03;100168.44;5022919;28;20525;-67
2021/06/26 09:03:05;;;;;;;721.75;689.05;;;;;;;23.73;48.63;100165.09;5025493;28;20048;-68
2021/06/26 09:05:30;;;;;;;723.38;690.63;;;;;;;23.68;48.80;100165.56;5019579;28;20060;-67
2021/06/26 09:08:15;;;;;;;726.35;693.33;;;;;;;23.64;48.08;100162.44;5020033;28;20589;-68
2021/06/26 09:10:43;;;;;;;719.05;686.60;;;;;;;23.61;48.42;100162.75;5021729;28;20079;-68
2021/06/26 09:13:22;;;;;;;724.65;691.95;;;;;;;23.61;47.94;100165.44;5029734;28;20021;-69
2021/06/26 09:15:47;;;;;;;726.50;693.22;;;;;;;23.62;49.01;100167.09;5021870;28;20029;-68
2021/06/26 09:18:19;;;;;;;723.47;690.40;;;;;;;23.61;48.08;100160.09;5034128;28;20032;-68
2021/06/26 09:20:49;;;;;;;723.08;690.53;;;;;;;23.62;48.77;100163.59;5033131;28;20044;-68
2021/06/26 09:23:21;;;;;;;729.28;696.25;;;;;;;23.63;48.11;100162.59;5017588;28;20037;-68
2021/06/26 09:25:49;;;;;;;717.55;685.00;;;;;;;23.63;48.56;100165.28;5033632;28;20055;-68
2021/06/26 09:28:29;;;;;;;721.28;688.58;;;;;;;23.64;48.13;100167.78;5024826;28;20021;-66
2021/06/26 09:30:54;;;;;;;731.85;698.53;;;;;;;23.65;48.68;100160.59;5017680;28;20511;-65
2021/06/26 09:33:24;;;;;;;720.60;687.80;;;;;;;23.67;48.52;100163.94;5034215;28;20116;-60
2021/06/26 09:36:04;;;;;;;718.67;685.63;;;;;;;23.73;48.71;100159.75;5037815;28;20107;-65
2021/06/26 09:38:31;;;;;;;724.88;691.92;;;;;;;23.74;50.60;100158.72;5053948;28;20360;-64
2021/06/26 09:41:11;;;;;;;725.42;692.58;;;;;;;23.69;47.96;100162.75;5042290;28;20056;-65
2021/06/26 09:43:39;;;;;;;724.83;692.15;;;;;;;23.67;47.33;100159.41;5023260;28;20025;-67
2021/06/26 09:46:10;;;;;;;716.97;684.47;;;;;;;23.64;46.93;100158.91;5030349;28;20096;-62
2021/06/26 09:48:53;;;;;;;722.65;689.63;;;;;;;23.63;46.12;100154.59;5033561;28;20048;-63
2021/06/26 09:51:22;;;;;;;720.70;687.97;;;;;;;23.76;50.29;100156.72;5033544;28;20108;-62
2021/06/26 09:54:05;;;;;;;729.38;695.92;;;;;;;23.80;49.04;100153.59;5033457;28;20476;-62
2021/06/26 09:56:45;;;;;;;721.28;688.70;;;;;;;23.77;46.88;100159.22;5033176;28;20025;-62
2021/06/26 09:59:12;;;;;;;728.80;695.78;;;;;;;23.74;47.48;100156.91;5033032;28;20103;-61
2021/06/26 10:01:46;;;;;;;719.55;686.85;;;;;;;23.73;46.14;100152.56;5037487;28;20025;-61
2021/06/26 10:04:16;;;;;;;727.58;694.50;;;;;;;23.71;46.07;100154.56;5029754;28;20029;-63
2021/06/26 10:06:44;;;;;;;726.30;693.50;;;;;;;23.71;46.21;100151.06;5022569;28;20029;-61
2021/06/26 10:09:10;;;;;;;719.47;686.92;;;;;;;23.69;45.59;100156.56;5033390;28;20041;-62
2021/06/26 10:11:41;;;;;;;722.97;690.35;;;;;;;23.70;46.30;100147.53;5033379;28;20029;-61
2021/06/26 10:14:13;;;;;;;724.45;691.60;;;;;;;23.68;45.12;100149.53;5017782;28;20203;-61
2021/06/26 10:16:41;;;;;;;721.03;688.47;;;;;;;23.66;48.76;100144.41;5019818;28;20013;-62
2021/06/26 10:19:07;;;;;;;;;;;;;;;23.63;50.03;100136.72;5033581;28;20049;-62
2021/06/26 10:21:34;;;;;;;725.67;692.40;;;;;;;23.61;49.60;100144.06;5032294;28;19913;-63
2021/06/26 10:24:03;;;;;;;722.92;690.22;;;;;;;23.59;46.64;100134.56;5017735;28;20045;-64
2021/06/26 10:26:35;;;;;;;718.70;686.45;;;;;;;23.52;45.39;100133.56;5033284;28;20043;-62
2021/06/26 10:29:00;;;;;;;722.17;689.63;;;;;;;23.57;45.17;100131.19;5032714;28;20025;-64
2021/06/26 10:31:37;;;;;;;722.03;689.17;;;;;;;23.61;45.99;100137.88;5032278;28;20021;-65
2021/06/26 10:34:19;;;;;;;720.72;688.35;;;;;;;23.63;46.16;100130.53;5012465;28;20649;-65
2021/06/26 10:36:54;;;;;;;718.05;685.75;;;;;;;23.64;44.79;100132.19;5024202;28;20025;-63
2021/06/26 10:39:28;;;;;;;715.78;683.33;;;;;;;23.61;44.38;100128.03;5021311;28;20110;-63
2021/06/26 10:42:05;;;;;;;719.55;687.08;;;;;;;23.61;44.17;100121.88;5032823;28;20034;-63
2021/06/26 10:44:40;;;;;;;723.08;690.45;;;;;;;23.58;43.65;100127.53;5032972;28;20090;-63
2021/06/26 10:47:05;;;;;;;723.90;691.30;;;;;;;23.59;44.06;100124.69;5032295;28;20371;-63
2021/06/26 10:49:33;;;;;;;716.78;684.55;;;;;;;23.60;44.86;100121.00;5032695;28;20052;-63
2021/06/26 10:52:10;;;;;;;719.13;686.72;;;;;;;23.63;43.86;100122.53;5032860;28;20036;-62
2021/06/26 10:54:36;;;;;;;721.45;688.95;;;;;;;23.64;43.58;100132.19;5032436;28;20478;-63
2021/06/26 10:57:11;;;;;;;722.00;689.63;;;;;;;23.67;43.95;100121.19;5033113;28;20033;-63
2021/06/26 10:59:38;;;;;;;718.80;686.42;;;;;;;23.69;44.80;100125.34;5033118;28;20026;-63
2021/06/26 11:02:04;;;;;;;722.88;690.13;;;;;;;23.67;43.53;100130.03;5032804;28;20037;-62
2021/06/26 11:04:32;;;;;;;723.95;691.42;;;;;;;23.65;43.72;100125.84;5032778;28;20108;-64
2021/06/26 11:07:05;;;;;;;722.10;689.42;;;;;;;23.65;43.72;100123.19;5032986;28;20038;-61
2021/06/26 11:09:52;;;;;;;723.67;691.08;;;;;;;23.65;45.11;100116.00;5032531;28;20022;-63
2021/06/26 11:12:20;;;;;;;729.83;696.75;;;;;;;23.66;44.45;100119.50;5030356;28;20494;-64
2021/06/26 11:14:49;;;;;;;;;;;;;;;23.68;43.53;100117.50;5032896;28;20029;-64
2021/06/26 11:17:15;;;;;;;725.83;692.90;;;;;;;23.70;45.48;100115.47;5032800;28;19942;-63
2021/06/26 11:19:40;;;;;;;721.40;688.83;;;;;;;23.71;44.64;100121.69;5032844;28;20025;-63
2021/06/26 11:22:08;;;;;;;726.88;694.15;;;;;;;23.73;44.06;100114.31;5032419;28;20358;-64
2021/06/26 11:24:39;;;;;;;724.90;692.25;;;;;;;23.74;44.40;100116.84;5029353;28;20030;-64
2021/06/26 11:27:06;;;;;;;721.42;688.90;;;;;;;23.76;44.21;100108.63;5027806;28;20061;-64
2021/06/26 11:29:41;;;;;;;730.67;697.72;;;;;;;23.77;43.96;100111.13;5001819;28;20371;-64
2021/06/26 11:32:21;;;;;;;721.35;688.88;;;;;;;23.79;46.31;100111.81;5032451;28;20037;-63
2021/06/26 11:34:58;;;;;;;727.50;694.50;;;;;;;23.81;47.22;100114.34;5050540;28;20025;-64
2021/06/26 11:37:42;;;;;;;724.95;692.45;;;;;;;23.80;45.21;100110.84;5028920;28;20030;-64
2021/06/26 11:40:13;;;;;;;725.60;692.80;;;;;;;23.82;45.19;100102.66;5035356;28;20346;-64
2021/06/26 11:42:48;;;;;;;726.25;693.25;;;;;;;23.80;44.29;100105.50;5036368;28;20036;-64
2021/06/26 11:45:18;;;;;;;721.97;689.50;;;;;;;23.82;45.41;100097.31;5018664;28;20086;-63
2021/06/26 11:47:46;;;;;;;728.88;695.78;;;;;;;23.81;45.59;100096.44;5035815;28;20069;-64
2021/06/26 11:50:17;;;;;;;729.78;696.92;;;;;;;23.84;45.74;100098.78;5035716;28;20034;-63
2021/06/26 11:52:43;;;;;;;727.10;694.20;;;;;;;23.84;46.04;100100.66;5034981;28;20447;-64
2021/06/26 11:55:10;;;;;;;723.30;690.78;;;;;;;23.86;47.46;100095.97;5031677;28;20109;-64
2021/06/26 11:57:35;;;;;;;722.17;689.50;;;;;;;23.91;48.40;100095.44;5025501;28;20075;-63
2021/06/26 12:00:01;;;;;;;724.92;692.45;;;;;;;23.91;46.86;100100.78;5014984;28;20041;-64
2021/06/26 12:02:35;;;;;;;724.30;691.70;;;;;;;23.92;47.25;100097.13;5033187;28;20038;-63
2021/06/26 12:05:18;;;;;;;727.15;694.30;;;;;;;23.93;47.49;100090.75;5035882;28;20026;-64
2021/06/26 12:07:43;;;;;;;728.30;695.40;;;;;;;23.95;47.35;100097.59;5028489;28;20025;-64
2021/06/26 12:10:09;;;;;;;728.13;695.22;;;;;;;23.95;46.84;100092.25;5029026;28;20029;-64
2021/06/26 12:12:38;;;;;;;733.70;700.50;;;;;;;23.96;47.13;100091.25;5035260;28;20040;-63
2021/06/26 12:15:09;;;;;;;733.42;700.33;;;;;;;23.95;45.24;100088.72;5024945;28;20037;-63
2021/06/26 12:17:36;;;;;;;729.42;696.42;;;;;;;23.97;47.69;100089.38;5028667;28;20052;-63
2021/06/26 12:20:06;;;;;;;725.53;692.88;;;;;;;23.97;47.04;100089.38;5025320;28;20029;-63
2021/06/26 12:22:32;;;;;;;734.55;701.40;;;;;;;23.98;47.33;100085.72;5021782;28;20056;-64
2021/06/26 12:25:13;;;;;;;719.70;687.20;;;;;;;23.99;47.33;100084.72;5035692;28;20486;-65
2021/06/26 12:27:39;;;;;;;724.47;691.58;;;;;;;24.00;47.52;100086.38;5019398;28;20029;-65
2021/06/26 12:30:08;;;;;;;723.55;690.95;;;;;;;24.01;47.37;100090.72;5027806;28;20026;-62
2021/06/26 12:32:38;;;;;;;722.72;690.10;;;;;;;24.00;44.37;100083.72;5034136;28;20112;-64
2021/06/26 12:35:09;;;;;;;725.80;693.08;;;;;;;24.01;47.41;100086.22;5032313;28;20473;-64
2021/06/26 12:37:44;;;;;;;721.97;689.15;;;;;;;24.01;48.39;100088.91;5034716;28;20469;-63
2021/06/26 12:40:22;;;;;;;730.63;697.53;;;;;;;24.01;47.46;100090.72;5027612;28;20524;-64
2021/06/26 12:43:14;;;;;;;722.95;690.35;;;;;;;24.01;46.29;100082.69;5027996;28;20029;-63
2021/06/26 12:45:43;;;;;;;724.63;691.88;;;;;;;24.01;47.08;100085.38;5015688;28;20128;-65
2021/06/26 12:48:16;;;;;;;729.17;696.40;;;;;;;24.01;46.26;100075.53;5018179;28;20044;-64
2021/06/26 12:50:48;;;;;;;729.70;696.88;;;;;;;24.02;45.94;100081.69;5035046;28;20025;-63
2021/06/26 12:53:13;;;;;;;729.60;696.50;;;;;;;24.03;47.85;100078.03;5041983;28;20104;-65
2021/06/26 12:55:39;;;;;;;723.92;691.33;;;;;;;24.04;47.67;100085.03;5037364;28;20110;-65
2021/06/26 12:58:10;;;;;;;724.53;692.03;;;;;;;24.02;48.56;100073.69;5022972;28;20447;-64
2021/06/26 13:00:37;;;;;;;728.17;695.17;;;;;;;24.04;48.10;100071.66;5041152;28;20461;-67
2021/06/26 13:03:03;;;;;;;726.15;693.25;;;;;;;24.05;49.46;100073.34;5021999;28;20403;-66
2021/06/26 13:05:30;;;;;;;723.20;690.55;;;;;;;24.07;48.48;100068.66;5036551;28;20061;-65
2021/06/26 13:08:03;;;;;;;731.03;697.83;;;;;;;24.07;49.70;100071.34;5041196;28;20112;-64
2021/06/26 13:10:29;;;;;;;726.75;693.95;;;;;;;24.08;48.75;100067.63;5034363;28;20037;-65
2021/06/26 13:12:54;;;;;;;725.67;692.85;;;;;;;24.10;49.96;100065.63;5038500;28;20021;-63
2021/06/26 13:15:22;;;;;;;725.85;693.05;;;;;;;24.08;50.29;100062.28;5037874;28;20517;-63
2021/06/26 13:17:49;;;;;;;728.60;695.70;;;;;;;24.10;50.01;100065.63;5036225;28;20123;-64
2021/06/26 13:20:15;;;;;;;725.58;692.97;;;;;;;24.12;49.41;100065.44;5036354;28;20068;-64
2021/06/26 13:22:42;;;;;;;723.88;691.45;;;;;;;24.16;47.54;100059.59;5030303;28;20029;-65
2021/06/26 13:25:12;;;;;;;;;;;;;;;24.21;48.62;100062.56;5036655;28;20446;-68
2021/06/26 13:27:41;;;;;;;745.63;710.78;;;;;;;24.31;50.04;100061.53;5038120;28;19925;-68
2021/06/26 13:30:08;;;;;;;745.17;710.33;;;;;;;24.38;50.13;100059.81;5023302;28;20111;-69
2021/06/26 13:32:33;;;;;;;741.25;706.92;;;;;;;24.42;49.56;100050.44;5019469;28;20520;-69
2021/06/26 13:34:59;;;;;;;738.78;704.85;;;;;;;24.43;47.71;100057.44;5023453;28;20029;-69
2021/06/26 13:37:27;;;;;;;741.03;706.90;;;;;;;24.42;50.23;100055.78;5039152;28;20108;-68
2021/06/26 13:39:52;;;;;;;737.30;703.28;;;;;;;24.40;50.67;100057.81;5040546;28;20102;-68
2021/06/26 13:42:19;;;;;;;741.33;706.85;;;;;;;24.39;51.02;100054.31;5039555;28;20041;-68
2021/06/26 13:44:45;;;;;;;738.47;704.50;;;;;;;24.38;51.33;100054.47;5045123;28;20021;-68
2021/06/26 13:47:10;;;;;;;742.00;707.92;;;;;;;24.37;50.80;100052.78;5040062;28;20492;-68
2021/06/26 13:49:36;;;;;;;739.55;705.08;;;;;;;24.36;50.05;100043.13;5039255;28;20402;-68
2021/06/26 13:52:01;;;;;;;744.65;709.33;;;;;;;24.37;48.16;100042.09;5036852;28;20035;-68
2021/06/26 13:54:29;;;;;;;738.75;703.45;;;;;;;24.37;50.59;100042.09;5039858;28;20219;-68
2021/06/26 13:56:54;;;;;;;737.88;703.58;;;;;;;24.34;50.34;100037.94;5033256;28;20108;-67
2021/06/26 13:59:20;;;;;;;743.33;707.17;;;;;;;24.34;51.42;100047.81;5035158;28;21672;-68
2021/06/26 14:01:45;;;;;;;742.72;707.13;;;;;;;24.32;51.20;100033.78;5039524;28;20060;-70
2021/06/26 14:04:15;;;;;;;745.92;710.05;;;;;;;24.32;50.98;100037.28;5038284;28;20037;-67
2021/06/26 14:06:41;;;;;;;741.63;706.40;;;;;;;24.31;50.94;100032.94;5036517;28;20021;-68
2021/06/26 14:09:06;;;;;;;739.70;704.55;;;;;;;24.31;51.44;100034.78;5036494;28;20032;-68
2021/06/26 14:11:34;;;;;;;750.00;713.95;;;;;;;24.31;51.44;100037.47;5023230;28;20059;-68
2021/06/26 14:13:59;;;;;;;742.58;707.05;;;;;;;24.32;51.31;100039.13;5042060;28;20491;-68
2021/06/26 14:16:24;;;;;;;743.95;708.85;;;;;;;24.31;51.74;100035.59;5035476;28;20029;-67
2021/06/26 14:18:50;;;;;;;739.40;704.28;;;;;;;24.32;51.15;100034.63;5031816;28;20024;-67
2021/06/26 14:21:18;;;;;;;741.55;706.35;;;;;;;24.33;51.61;100032.75;5035887;28;20033;-68
2021/06/26 14:23:45;;;;;;;733.80;699.35;;;;;;;24.33;50.84;100030.09;5034552;28;20112;-67
2021/06/26 14:26:11;;;;;;;738.33;703.92;;;;;;;24.33;50.96;100030.09;5036019;28;20421;-67
2021/06/26 14:28:40;;;;;;;741.72;707.17;;;;;;;24.32;50.36;100029.25;5035794;28;20017;-67
2021/06/26 14:31:06;;;;;;;741.30;706.50;;;;;;;24.33;49.88;100019.38;5040232;28;20029;-67
2021/06/26 14:33:34;;;;;;;740.28;705.78;;;;;;;24.33;50.48;100016.72;5017364;28;20466;-67
2021/06/26 14:36:00;;;;;;;738.25;703.70;;;;;;;24.33;50.12;100014.03;5036749;28;20040;-67
2021/06/26 14:38:28;;;;;;;739.72;705.60;;;;;;;24.33;49.69;100014.88;5037460;28;20029;-67
2021/06/26 14:40:54;;;;;;;740.47;705.97;;;;;;;24.34;49.00;100007.69;5034889;28;20036;-68
2021/06/26 14:43:19;;;;;;;740.90;706.72;;;;;;;24.33;48.82;100008.69;5037100;28;20570;-68
2021/06/26 14:45:45;;;;;;;743.25;708.67;;;;;;;24.32;47.75;100009.72;5018138;28;20102;-69
2021/06/26 14:48:10;;;;;;;739.63;705.42;;;;;;;24.33;48.91;100011.38;5015246;28;20056;-65
2021/06/26 14:50:38;;;;;;;736.45;702.20;;;;;;;24.31;49.11;100002.69;5032375;28;20033;-70
2021/06/26 14:53:06;;;;;;;739.17;704.88;;;;;;;24.32;49.67;99993.69;5029639;28;20025;-64
2021/06/26 14:55:31;;;;;;;738.75;704.75;;;;;;;24.32;46.53;99999.84;5032759;28;20091;-66
2021/06/26 14:57:56;;;;;;;741.35;707.00;;;;;;;24.35;47.20;99990.63;5032468;28;20468;-65
2021/06/26 15:00:23;;;;;;;740.50;706.15;;;;;;;24.34;46.49;99986.31;5031571;28;20418;-64
2021/06/26 15:02:51;;;;;;;731.00;697.42;;;;;;;24.36;45.16;99981.63;5032524;28;20101;-62
2021/06/26 15:05:18;;;;;;;743.42;709.05;;;;;;;24.36;46.65;99973.59;5032605;28;20439;-63
2021/06/26 15:07:44;;;;;;;742.40;708.20;;;;;;;24.37;46.22;99975.22;5032826;28;20025;-63
2021/06/26 15:10:10;;;;;;;740.85;706.65;;;;;;;24.36;45.73;99976.25;5035936;28;20547;-62
2021/06/26 15:12:35;;;;;;;736.15;702.35;;;;;;;24.38;46.09;99974.25;5036059;28;20040;-63
2021/06/26 15:15:04;;;;;;;743.22;709.08;;;;;;;24.37;46.77;99968.03;5036394;28;20033;-62
2021/06/26 15:17:30;;;;;;;745.45;711.13;;;;;;;24.38;46.85;99968.88;5036311;28;20117;-65
2021/06/26 15:19:55;;;;;;;742.88;708.67;;;;;;;24.36;47.07;99969.06;5036475;28;20116;-64
2021/06/26 15:22:20;;;;;;;741.55;707.58;;;;;;;24.35;47.56;99969.22;5035440;28;20072;-64
2021/06/26 15:24:46;;;;;;;742.15;708.13;;;;;;;24.34;48.07;99960.38;5036096;28;20450;-65
2021/06/26 15:27:14;;;;;;;741.55;707.33;;;;;;;24.34;48.40;99962.25;5036448;28;20048;-65
2021/06/26 15:29:42;;;;;;;741.67;707.65;;;;;;;24.33;48.91;99955.22;5035961;28;20037;-65
2021/06/26 15:32:12;;;;;;;741.72;707.70;;;;;;;24.32;48.59;99953.56;5035948;28;20032;-64
2021/06/26 15:34:42;;;;;;;745.13;710.75;;;;;;;24.32;48.76;99953.56;5035941;28;20063;-65
2021/06/26 15:37:08;;;;;;;740.65;706.67;;;;;;;24.32;49.04;99953.56;5035714;28;20044;-64
2021/06/26 15:39:35;;;;;;;739.47;705.53;;;;;;;24.32;49.29;99953.56;5035961;28;20033;-64
2021/06/26 15:42:00;;;;;;;;;;;;;;;24.33;49.45;99955.22;5036519;28;20021;-65
2021/06/26 15:44:25;;;;;;;735.40;701.47;;;;;;;24.31;49.61;99952.72;5036000;28;20318;-65
2021/06/26 15:46:53;;;;;;;740.70;706.72;;;;;;;24.32;49.54;99953.56;5035888;28;20339;-65
2021/06/26 15:49:21;;;;;;;738.72;704.80;;;;;;;24.32;49.31;99953.56;5033431;28;20033;-65
2021/06/26 15:51:46;;;;;;;741.72;707.53;;;;;;;24.33;49.57;99955.22;5035638;28;20419;-65
2021/06/26 15:54:11;;;;;;;742.28;708.22;;;;;;;24.33;49.84;99949.88;5033428;28;20061;-64
2021/06/26 15:56:37;;;;;;;736.95;702.85;;;;;;;24.33;49.75;99949.88;5035430;28;20056;-64
2021/06/26 15:59:03;;;;;;;741.67;707.75;;;;;;;24.33;50.01;99949.88;5016111;28;20026;-65
2021/06/26 16:01:29;;;;;;;741.30;707.20;;;;;;;24.32;49.76;99953.56;5035440;28;20465;-63
2021/06/26 16:03:54;;;;;;;737.30;703.42;;;;;;;24.33;50.31;99949.88;5036030;28;20262;-65
2021/06/26 16:06:20;;;;;;;741.60;707.47;;;;;;;24.32;50.06;99942.88;5034061;28;20037;-65
2021/06/26 16:08:51;;;;;;;735.72;702.00;;;;;;;24.33;49.73;99956.03;5046555;28;20116;-65
2021/06/26 16:11:16;;;;;;;742.47;708.28;;;;;;;24.34;50.10;99954.22;5035022;28;20061;-66
2021/06/26 16:13:42;;;;;;;740.88;706.83;;;;;;;24.34;50.66;99951.53;5020747;28;20072;-64
2021/06/26 16:16:08;;;;;;;736.78;702.97;;;;;;;24.34;50.12;99954.22;5026245;28;20399;-65
2021/06/26 16:18:34;;;;;;;734.38;700.72;;;;;;;24.33;50.40;99956.03;5035366;28;20565;-65
2021/06/26 16:21:03;;;;;;;735.60;702.00;;;;;;;24.34;50.05;99946.19;5034648;28;20029;-65
2021/06/26 16:23:28;;;;;;;742.45;708.35;;;;;;;24.35;50.10;99947.84;5034367;28;20121;-65
2021/06/26 16:25:56;;;;;;;742.50;708.40;;;;;;;24.34;50.55;99940.84;5034931;28;20104;-65
2021/06/26 16:28:21;;;;;;;743.05;708.88;;;;;;;24.35;50.59;99942.50;5035208;28;20362;-64
2021/06/26 16:30:47;;;;;;;739.33;705.50;;;;;;;24.35;50.66;99943.31;5018409;28;20040;-64
2021/06/26 16:33:12;;;;;;;739.72;705.88;;;;;;;24.36;50.90;99944.16;5034954;28;20025;-64
2021/06/26 16:35:39;;;;;;;739.42;705.55;;;;;;;24.36;50.36;99936.16;5019278;28;20087;-65
2021/06/26 16:38:52;;;;;;;;;;;;;;;24.35;51.68;99937.16;5030635;28;20112;-66
2021/06/26 16:40:58;;;;;;;738.13;704.03;;;;;;;24.35;50.88;99929.13;5032415;28;19944;-66
2021/06/26 16:43:26;;;;;;;740.83;706.80;;;;;;;24.38;50.42;99936.81;5035464;28;20026;-66
2021/06/26 16:45:53;;;;;;;742.45;708.22;;;;;;;24.39;50.96;99931.28;5030170;28;20025;-66
2021/06/26 16:48:19;;;;;;;;;;;;;;;24.40;52.18;99940.13;5027864;28;20438;-63
2021/06/26 16:50:46;;;;;;;738.63;704.22;;;;;;;24.39;51.01;99936.63;5022308;28;19917;-60
2021/06/26 16:53:15;;;;;;;733.58;699.70;;;;;;;24.41;51.78;99931.06;5033631;28;20108;-63
2021/06/26 16:55:41;;;;;;;741.70;707.38;;;;;;;24.42;52.79;99938.94;5032626;28;20442;-63
2021/06/26 16:58:06;;;;;;;741.55;707.22;;;;;;;24.41;52.04;99931.94;5033717;28;20079;-64
2021/06/26 17:00:34;;;;;;;739.80;705.63;;;;;;;24.42;52.74;99917.53;5032580;28;20407;-62
2021/06/26 17:02:59;;;;;;;741.70;707.47;;;;;;;24.45;51.67;99921.72;5033097;28;20095;-62
2021/06/26 17:05:27;;;;;;;737.08;703.10;;;;;;;24.45;53.35;99922.53;5033436;28;20417;-62
2021/06/26 17:07:52;;;;;;;738.15;704.00;;;;;;;24.45;53.35;99916.34;5031447;28;20047;-62
2021/06/26 17:10:17;;;;;;;743.85;709.65;;;;;;;24.45;53.75;99922.53;5031173;28;20466;-61
2021/06/26 17:12:48;;;;;;;745.85;711.40;;;;;;;24.46;53.08;99918.81;5028785;28;20022;-62
2021/06/26 17:15:13;;;;;;;745.42;711.03;;;;;;;24.46;53.77;99918.00;5033890;28;20105;-66
2021/06/26 17:17:39;;;;;;;741.50;707.25;;;;;;;24.46;53.61;99918.81;5032861;28;20442;-66
2021/06/26 17:20:05;;;;;;;740.08;706.08;;;;;;;24.47;53.26;99919.69;4953310;28;20078;-65
2021/06/26 17:22:33;;;;;;;738.30;704.40;;;;;;;24.46;54.16;99918.00;5009908;28;20096;-70
2021/06/26 17:24:59;;;;;;;738.67;704.70;;;;;;;24.45;52.34;99922.53;5013843;28;20363;-69
2021/06/26 17:27:24;;;;;;;740.47;706.42;;;;;;;24.43;54.07;99924.56;5013820;28;20030;-66
2021/06/26 17:29:49;;;;;;;739.47;705.30;;;;;;;24.44;53.74;99926.19;5013764;28;20029;-66
